WetterOnline ( https://www.wetteronline.de )

Wetter aktuell Skive

Aktuelles Wetter: Karup (53m)

6-stündlich | Neueste Meldungen
Ortszeit Temperatur Wetter
Sa, 31.10. 19:00 12.0° C leichte Schauer
Sa, 31.10. 13:00 11.5° C bewölkt
Sa, 31.10. 7:00 5.4° C leichte Schauer
Sa, 31.10. 1:00 10.5° C bewölkt
Fr, 30.10. 19:00 12.4° C bewölkt
Fr, 30.10. 13:00 11.2° C leichte Schauer
Fr, 30.10. 7:00 8.9° C Sprühregen
Fr, 30.10. 1:00 5.9° C bedeckt
Ortszeit Temperatur Wetter
Sa, 31.10. 23:50 12° C bedeckt
Sa, 31.10. 23:20 12° C bedeckt
Sa, 31.10. 23:00 12.4° C bedeckt
Sa, 31.10. 22:50 13° C bedeckt
Sa, 31.10. 22:20 13° C bedeckt
Sa, 31.10. 22:00 12.4° C bedeckt
Sa, 31.10. 21:50 12° C bedeckt
Sa, 31.10. 21:20 12° C bedeckt
Sa, 31.10. 21:00 12.2° C bedeckt
Sa, 31.10. 20:20 12° C bedeckt
Ortszeit Relative Feuchte Sichtweite
Sa, 31.10. 19:00 97% 5.0 km
Sa, 31.10. 13:00 94% 40 km
Sa, 31.10. 7:00 100% 100 m
Sa, 31.10. 1:00 98% 8 km
Fr, 30.10. 19:00 95% 12 km
Fr, 30.10. 13:00 99% 2.5 km
Fr, 30.10. 7:00 97% 5.0 km
Fr, 30.10. 1:00 97% 21 km
Ortszeit Relative Feuchte Sichtweite
Sa, 31.10. 23:50 94% >10 km
Sa, 31.10. 23:20 94% >10 km
Sa, 31.10. 23:00 91% 26 km
Sa, 31.10. 22:50 88% >10 km
Sa, 31.10. 22:20 88% >10 km
Sa, 31.10. 22:00 93% 27 km
Sa, 31.10. 21:50 94% >10 km
Sa, 31.10. 21:20 94% >10 km
Sa, 31.10. 21:00 94% 21 km
Sa, 31.10. 20:20 94% >10 km
Ortszeit Niederschlagsmenge Niederschlagsart
Sa, 31.10. 19:00 0.3 l/m2 in 3 Std. Schauer
Sa, 31.10. 13:00 0.1 l/m2 in 6 Std. -
Sa, 31.10. 7:00 0.0 l/m2 in 3 Std. Schauer
Sa, 31.10. 1:00 0.0 l/m2 in 3 Std. -
Fr, 30.10. 19:00 6 l/m2 in 12 Std. -
Fr, 30.10. 13:00 1 l/m2 in 3 Std. Schauer
Fr, 30.10. 7:00 1 l/m2 in 12 Std. Sprühregen
Fr, 30.10. 1:00 0.0 l/m2 in 3 Std. -
Ortszeit Niederschlagsmenge Niederschlagsart
Sa, 31.10. 23:50 keine Meldung -
Sa, 31.10. 23:20 keine Meldung -
Sa, 31.10. 23:00 0.0 l/m2 in 1 Std. -
Sa, 31.10. 22:50 keine Meldung -
Sa, 31.10. 22:20 keine Meldung -
Sa, 31.10. 22:00 0.0 l/m2 in 1 Std. -
Sa, 31.10. 21:50 keine Meldung -
Sa, 31.10. 21:20 keine Meldung -
Sa, 31.10. 21:00 0.1 l/m2 in 1 Std. -
Sa, 31.10. 20:20 keine Meldung -
Ortszeit Stärke Spitze Richtung
km/h Bft. km/h Grad Sektor
Sa, 31.10. 19:00 19 3 - 160° S
Sa, 31.10. 13:00 9 2 - 140° SO
Sa, 31.10. 7:00 - - - - -
Sa, 31.10. 1:00 7 2 - 220° SW
Fr, 30.10. 19:00 11 2 - 230° SW
Fr, 30.10. 13:00 11 2 - 140° SO
Fr, 30.10. 7:00 15 3 - 120° SO
Fr, 30.10. 1:00 9 2 - 150° SO
Ortszeit Stärke Spitze Richtung
km/h Bft. km/h Grad Sektor
Sa, 31.10. 23:50 19 3 - 160° S
Sa, 31.10. 23:20 19 3 - 160° S
Sa, 31.10. 23:00 19 3 - 160° S
Sa, 31.10. 22:50 19 3 - 160° S
Sa, 31.10. 22:20 17 3 - 160° S
Sa, 31.10. 22:00 19 3 - 170° S
Sa, 31.10. 21:50 17 3 - 170° S
Sa, 31.10. 21:20 17 3 - 160° S
Sa, 31.10. 21:00 19 3 - 160° S
Sa, 31.10. 20:20 17 3 - 170° S
Ortszeit Untergrenze Bedeckung Gattung
total tief tief mittel hoch
Sa, 31.10. 19:00 120 m 8/8 8/8 - - -
Sa, 31.10. 13:00 240 m 7/8 7/8 - - -
Sa, 31.10. 7:00 - 0/8 0/8 - - -
Sa, 31.10. 1:00 840 m 7/8 7/8 - - -
Fr, 30.10. 19:00 300 m 7/8 7/8 - - -
Fr, 30.10. 13:00 120 m 8/8 8/8 - - -
Fr, 30.10. 7:00 150 m 8/8 8/8 - - -
Fr, 30.10. 1:00 4200 m 8/8 8/8 - - -
Ortszeit Bedeckungsgrad in Achtel und Wolkenuntergrenze
Sa, 31.10. 23:50 1-2(390m) 5-7(930m) 8(1500m)
Sa, 31.10. 23:20 3-4(390m) 8(1140m)
Sa, 31.10. 23:00 2(420m) 8(1050m)
Sa, 31.10. 22:50 1-2(420m) 8(1050m)
Sa, 31.10. 22:20 1-2(390m) 8(1110m)
Sa, 31.10. 22:00 5(360m) 8(1230m)
Sa, 31.10. 21:50 5-7(360m) 8(1200m)
Sa, 31.10. 21:20 8(420m)
Sa, 31.10. 21:00 8(360m)
Sa, 31.10. 20:20 8(210m)
Ortszeit Luftdruck NN (hPa) Tendenz (hPa in 3 Std.)
Sa, 31.10. 19:00 1012 - 2,5
Sa, 31.10. 13:00 1017 - 2,3
Sa, 31.10. 7:00 1018 + 0,1
Sa, 31.10. 1:00 1017 + 1,1
Fr, 30.10. 19:00 1013 + 2,1
Fr, 30.10. 13:00 1009 + 0,4
Fr, 30.10. 7:00 1008 - 0,8
Fr, 30.10. 1:00 1010 - 0,4
Ortszeit Luftdruck NN (hPa) Tendenz (hPa in 3 Std.)
Sa, 31.10. 23:50 1008 keine Meldung
Sa, 31.10. 23:20 1008 keine Meldung
Sa, 31.10. 23:00 1009 - 2,5
Sa, 31.10. 22:50 1008 keine Meldung
Sa, 31.10. 22:20 1009 keine Meldung
Sa, 31.10. 22:00 1010 - 2,2
Sa, 31.10. 21:50 1009 keine Meldung
Sa, 31.10. 21:20 1010 keine Meldung
Sa, 31.10. 21:00 1011 - 1,9
Sa, 31.10. 20:20 1010 keine Meldung
Ortszeit Schneehöhe (cm)
Sa, 31.10. 19:00 -
Sa, 31.10. 13:00 -
Sa, 31.10. 7:00 -
Sa, 31.10. 1:00 -
Fr, 30.10. 19:00 -
Fr, 30.10. 13:00 -
Fr, 30.10. 7:00 -
Fr, 30.10. 1:00 -
Ortszeit Schneehöhe (cm)
Sa, 31.10. 23:50 -
Sa, 31.10. 23:20 -
Sa, 31.10. 23:00 -
Sa, 31.10. 22:50 -
Sa, 31.10. 22:20 -
Sa, 31.10. 22:00 -
Sa, 31.10. 21:50 -
Sa, 31.10. 21:20 -
Sa, 31.10. 21:00 -
Sa, 31.10. 20:20 -
Link zu dieser Seite / Seite empfehlen

Das Wetter in ...